Terminal Aerodrome Forecast
Issued by NWS

Home | Current Version | Previous Version | Text Only | Print | Product List | Glossary On
Versions: 1 2 3 4 5 6 7 8 9 10 11 12 13 14 15
000
FTAK31 PAFA 221737
TAFABT
TAF
PABT 221737Z 2218/2318 33008KT P6SM -SN FEW050 BKN070 OVC090
     FM230300 31005KT 6SM -SN BR SCT015 BKN025 OVC050=

USA.gov is the U.S. government's official web portal to all federal, state and local government web resources and services.